Datum - Zeit
Döttingen
TemperaturTaupunktFeuchteSolar Wind aus
Richtung
Windböenaus
Richtung
Luftdruck
(QFF)
RegenRegen
Stärke
20.06.2024 - 00.00Uhr21.7 °C17.5 °C77 %0.0 W/m²1.8 km/hSüdosten8.3 km/hOst-SO1014.7 hPa0.0 mm0.0 mm/h
20.06.2024 - 00.05Uhr21.6 °C17.4 °C77 %0.0 W/m²2.5 km/hNordwesten8.3 km/hNorden1014.8 hPa0.0 mm0.0 mm/h
20.06.2024 - 00.10Uhr21.4 °C17.3 °C78 %0.0 W/m²1.7 km/hNorden4.0 km/hNorden1014.8 hPa0.0 mm0.0 mm/h
20.06.2024 - 00.15Uhr21.4 °C17.3 °C78 %0.0 W/m²0.0 km/hNorden0.0 km/hNorden1014.9 hPa0.0 mm0.0 mm/h
20.06.2024 - 00.20Uhr21.4 °C17.3 °C78 %0.0 W/m²1.0 km/hNordwesten4.0 km/hWesten1014.9 hPa0.0 mm0.0 mm/h
20.06.2024 - 00.25Uhr21.2 °C17.2 °C78 %0.0 W/m²3.1 km/hNorden8.3 km/hNorden1014.8 hPa0.0 mm0.0 mm/h
20.06.2024 - 00.30Uhr21.0 °C17.2 °C79 %0.0 W/m²2.7 km/hNord-NO8.3 km/hNorden1014.8 hPa0.0 mm0.0 mm/h
20.06.2024 - 00.35Uhr21.0 °C17.1 °C79 %0.0 W/m²1.9 km/hOst-NO8.3 km/hNord-NO1014.7 hPa0.0 mm0.0 mm/h
20.06.2024 - 00.40Uhr21.0 °C17.1 °C78 %0.0 W/m²0.1 km/hOsten1.8 km/hNordosten1014.9 hPa0.0 mm0.0 mm/h
20.06.2024 - 00.45Uhr21.0 °C17.0 °C78 %0.0 W/m²2.2 km/hOsten8.3 km/hNordosten1015.1 hPa0.0 mm0.0 mm/h
20.06.2024 - 00.50Uhr20.9 °C17.1 °C79 %0.0 W/m²0.1 km/hOst-NO1.8 km/hOst-NO1015.3 hPa0.0 mm0.0 mm/h
20.06.2024 - 00.55Uhr20.7 °C17.0 °C80 %0.0 W/m²0.0 km/hNorden0.0 km/hNorden1015.3 hPa0.0 mm0.0 mm/h
20.06.2024 - 01.00Uhr20.6 °C17.0 °C80 %0.0 W/m²0.2 km/hNord-NO1.8 km/hNord-NO1015.2 hPa0.0 mm0.0 mm/h
20.06.2024 - 01.05Uhr20.6 °C17.0 °C80 %0.0 W/m²2.0 km/hWest-NW5.8 km/hWest-NW1015.2 hPa0.0 mm0.0 mm/h
20.06.2024 - 01.10Uhr20.6 °C17.0 °C80 %0.0 W/m²2.1 km/hSüdosten8.3 km/hOst-SO1015.2 hPa0.0 mm0.0 mm/h
20.06.2024 - 01.15Uhr20.4 °C16.9 °C80 %0.0 W/m²0.0 km/hSüd-SO0.0 km/hNorden1015.2 hPa0.0 mm0.0 mm/h
20.06.2024 - 01.20Uhr20.5 °C16.9 °C80 %0.0 W/m²3.5 km/hOst-NO12.2 km/hOsten1015.3 hPa0.0 mm0.0 mm/h
20.06.2024 - 01.25Uhr20.6 °C16.8 °C79 %0.0 W/m²4.0 km/hNord-NO12.2 km/hOst-SO1015.3 hPa0.0 mm0.0 mm/h
20.06.2024 - 01.30Uhr20.6 °C16.8 °C79 %0.0 W/m²1.6 km/hOst-NO5.8 km/hNord-NW1015.2 hPa0.0 mm0.0 mm/h
20.06.2024 - 01.35Uhr20.5 °C16.8 °C79 %0.0 W/m²1.2 km/hOst-NO5.8 km/hNord-NO1015.3 hPa0.0 mm0.0 mm/h
20.06.2024 - 01.40Uhr20.6 °C16.8 °C79 %0.0 W/m²3.8 km/hNord-NO14.0 km/hNord-NO1015.4 hPa0.0 mm0.0 mm/h
20.06.2024 - 01.45Uhr20.5 °C16.7 °C79 %0.0 W/m²1.2 km/hNord-NO8.3 km/hNorden1015.5 hPa0.0 mm0.0 mm/h
20.06.2024 - 01.50Uhr20.4 °C16.6 °C79 %0.0 W/m²4.0 km/hNordosten12.2 km/hOsten1015.4 hPa0.0 mm0.0 mm/h
20.06.2024 - 01.55Uhr20.4 °C16.6 °C79 %0.0 W/m²2.7 km/hOst-SO8.3 km/hNorden1015.2 hPa0.0 mm0.0 mm/h
20.06.2024 - 02.00Uhr20.3 °C16.5 °C79 %0.0 W/m²4.3 km/hNord-NO12.2 km/hNord-NO1015.2 hPa0.0 mm0.0 mm/h
20.06.2024 - 02.05Uhr20.3 °C16.6 °C80 %0.0 W/m²1.8 km/hOst-NO8.3 km/hOsten1015.3 hPa0.0 mm0.0 mm/h
20.06.2024 - 02.10Uhr20.1 °C16.5 °C80 %0.0 W/m²0.8 km/hOst-SO4.0 km/hSüdosten1015.5 hPa0.0 mm0.0 mm/h
20.06.2024 - 02.15Uhr20.1 °C16.5 °C80 %0.0 W/m²1.8 km/hSüdwesten5.8 km/hSüdwesten1015.6 hPa0.0 mm0.0 mm/h
20.06.2024 - 02.20Uhr20.1 °C16.5 °C80 %0.0 W/m²1.7 km/hNordwesten5.8 km/hWest-NW1015.6 hPa0.0 mm0.0 mm/h
20.06.2024 - 02.25Uhr20.0 °C16.4 °C80 %0.0 W/m²4.9 km/hNordosten12.2 km/hNord-NO1015.8 hPa0.0 mm0.0 mm/h
20.06.2024 - 02.30Uhr19.9 °C16.5 °C81 %0.0 W/m²0.8 km/hNordosten4.0 km/hNordwesten1015.8 hPa0.0 mm0.0 mm/h
20.06.2024 - 02.35Uhr19.9 °C16.4 °C81 %0.0 W/m²0.0 km/hNordosten0.0 km/hNorden1015.8 hPa0.0 mm0.0 mm/h
20.06.2024 - 02.40Uhr19.6 °C16.4 °C82 %0.0 W/m²1.4 km/hNord-NW5.8 km/hNordwesten1015.7 hPa0.0 mm0.0 mm/h
20.06.2024 - 02.45Uhr19.6 °C16.4 °C82 %0.0 W/m²0.9 km/hNorden4.0 km/hNorden1015.7 hPa0.0 mm0.0 mm/h
20.06.2024 - 02.50Uhr19.6 °C16.4 °C82 %0.0 W/m²1.8 km/hNorden5.8 km/hNorden1015.6 hPa0.0 mm0.0 mm/h
20.06.2024 - 02.55Uhr19.7 °C16.5 °C82 %0.0 W/m²0.0 km/hNorden0.0 km/hNorden1015.6 hPa0.0 mm0.0 mm/h
20.06.2024 - 03.00Uhr19.5 °C16.3 °C82 %0.0 W/m²0.0 km/hNorden0.0 km/hNorden1015.5 hPa0.0 mm0.0 mm/h
20.06.2024 - 03.05Uhr19.3 °C16.3 °C83 %0.0 W/m²0.3 km/hNord-NW1.8 km/hNordwesten1015.4 hPa0.0 mm0.0 mm/h
20.06.2024 - 03.10Uhr19.2 °C16.3 °C84 %0.0 W/m²0.2 km/hSüdwesten1.8 km/hNordwesten1015.4 hPa0.0 mm0.0 mm/h
20.06.2024 - 03.15Uhr19.2 °C16.4 °C84 %0.0 W/m²0.4 km/hSüden1.8 km/hSüden1015.5 hPa0.0 mm0.0 mm/h
20.06.2024 - 03.20Uhr19.4 °C16.4 °C83 %0.0 W/m²2.5 km/hOsten8.3 km/hOsten1015.7 hPa0.0 mm0.0 mm/h
20.06.2024 - 03.25Uhr19.7 °C16.4 °C82 %0.0 W/m²3.0 km/hSüden8.3 km/hWest-NW1015.8 hPa0.0 mm0.0 mm/h
20.06.2024 - 03.30Uhr19.8 °C16.4 °C81 %0.0 W/m²0.8 km/hSüdwesten5.8 km/hSüdwesten1015.9 hPa0.0 mm0.0 mm/h
20.06.2024 - 03.35Uhr19.8 °C16.4 °C81 %0.0 W/m²4.3 km/hNordosten8.3 km/hNorden1016.0 hPa0.0 mm0.0 mm/h
20.06.2024 - 03.40Uhr19.7 °C16.4 °C81 %0.0 W/m²1.3 km/hNorden4.0 km/hNorden1016.1 hPa0.0 mm0.0 mm/h
20.06.2024 - 03.45Uhr19.6 °C16.5 °C83 %0.0 W/m²0.9 km/hNorden4.0 km/hNorden1016.1 hPa0.0 mm0.0 mm/h
20.06.2024 - 03.50Uhr19.6 °C16.6 °C83 %0.0 W/m²2.5 km/hNord-NW10.1 km/hNorden1016.3 hPa0.0 mm0.0 mm/h
20.06.2024 - 03.55Uhr19.4 °C16.5 °C83 %0.0 W/m²5.4 km/hNorden12.2 km/hNorden1016.4 hPa0.0 mm0.0 mm/h
20.06.2024 - 04.00Uhr19.2 °C16.5 °C84 %0.0 W/m²4.3 km/hNorden10.1 km/hNorden1016.3 hPa0.0 mm0.0 mm/h
20.06.2024 - 04.05Uhr18.9 °C16.3 °C85 %0.0 W/m²4.7 km/hNorden12.2 km/hNord-NO1016.3 hPa0.0 mm0.0 mm/h
20.06.2024 - 04.10Uhr18.7 °C16.3 °C86 %0.0 W/m²4.9 km/hNorden8.3 km/hNord-NW1016.2 hPa0.0 mm0.0 mm/h
20.06.2024 - 04.15Uhr18.5 °C16.2 °C86 %0.0 W/m²4.1 km/hNorden10.1 km/hNorden1016.1 hPa0.0 mm0.0 mm/h
20.06.2024 - 04.20Uhr18.4 °C16.2 °C87 %0.0 W/m²1.5 km/hNord-NW5.8 km/hNord-NW1016.0 hPa0.0 mm0.0 mm/h
20.06.2024 - 04.25Uhr18.4 °C16.2 °C87 %0.0 W/m²1.0 km/hNord-NW4.0 km/hNord-NW1015.9 hPa0.0 mm0.0 mm/h
20.06.2024 - 04.30Uhr18.4 °C16.2 °C87 %0.0 W/m²1.4 km/hNordwesten4.0 km/hWest-NW1016.0 hPa0.0 mm0.0 mm/h
20.06.2024 - 04.35Uhr18.4 °C16.2 °C87 %0.0 W/m²1.2 km/hWest-NW4.0 km/hWest-NW1016.0 hPa0.0 mm0.0 mm/h
20.06.2024 - 04.40Uhr18.3 °C16.1 °C87 %0.0 W/m²0.0 km/hWest-NW0.0 km/hNorden1015.9 hPa0.0 mm0.0 mm/h
20.06.2024 - 04.45Uhr18.2 °C16.2 °C88 %0.0 W/m²0.0 km/hNordwesten0.0 km/hNorden1015.8 hPa0.0 mm0.0 mm/h
20.06.2024 - 04.50Uhr18.1 °C16.1 °C88 %0.0 W/m²0.0 km/hNordwesten0.0 km/hNorden1015.8 hPa0.0 mm0.0 mm/h
20.06.2024 - 04.55Uhr18.1 °C16.1 °C88 %0.0 W/m²0.0 km/hNordwesten0.0 km/hNorden1015.7 hPa0.0 mm0.0 mm/h
20.06.2024 - 05.00Uhr18.1 °C16.1 °C88 %0.0 W/m²0.0 km/hNordwesten0.0 km/hNorden1015.6 hPa0.0 mm0.0 mm/h
20.06.2024 - 05.05Uhr18.0 °C16.1 °C89 %0.0 W/m²0.4 km/hWest-NW1.8 km/hWest-NW1015.7 hPa0.0 mm0.0 mm/h
20.06.2024 - 05.10Uhr18.0 °C16.2 °C89 %0.0 W/m²0.0 km/hNordwesten0.0 km/hNorden1015.5 hPa0.0 mm0.0 mm/h
20.06.2024 - 05.15Uhr17.9 °C16.1 °C89 %0.0 W/m²1.6 km/hNorden4.0 km/hNorden1015.6 hPa0.0 mm0.0 mm/h
20.06.2024 - 05.20Uhr17.9 °C16.1 °C89 %0.0 W/m²0.7 km/hNordwesten4.0 km/hNordwesten1015.9 hPa0.0 mm0.0 mm/h
20.06.2024 - 05.25Uhr18.0 °C16.2 °C89 %0.0 W/m²0.0 km/hNordwesten0.0 km/hNorden1015.9 hPa0.0 mm0.0 mm/h
20.06.2024 - 05.30Uhr18.1 °C16.3 °C89 %0.0 W/m²2.0 km/hNord-NO8.3 km/hNord-NW1015.9 hPa0.0 mm0.0 mm/h
20.06.2024 - 05.35Uhr18.1 °C16.3 °C89 %0.0 W/m²0.6 km/hNord-NW4.0 km/hNord-NW1015.8 hPa0.0 mm0.0 mm/h
20.06.2024 - 05.40Uhr18.1 °C16.3 °C89 %5.0 W/m²0.7 km/hNordwesten1.8 km/hNorden1016.0 hPa0.0 mm0.0 mm/h
20.06.2024 - 05.45Uhr18.1 °C16.4 °C89 %7.0 W/m²0.0 km/hNordwesten0.0 km/hNorden1016.0 hPa0.0 mm0.0 mm/h
20.06.2024 - 05.50Uhr18.2 °C16.3 °C89 %11.0 W/m²0.2 km/hNordwesten1.8 km/hNord-NO1015.9 hPa0.0 mm0.0 mm/h
20.06.2024 - 05.55Uhr18.2 °C16.3 °C89 %12.0 W/m²0.0 km/hNord-NO0.0 km/hNorden1016.0 hPa0.0 mm0.0 mm/h
20.06.2024 - 06.00Uhr18.1 °C16.3 °C89 %16.0 W/m²0.6 km/hNorden1.8 km/hNorden1016.2 hPa0.0 mm0.0 mm/h
20.06.2024 - 06.05Uhr18.2 °C16.4 °C89 %18.0 W/m²2.8 km/hSüdosten8.3 km/hSüdosten1016.3 hPa0.0 mm0.0 mm/h
20.06.2024 - 06.10Uhr18.2 °C16.4 °C89 %21.0 W/m²3.4 km/hOst-SO8.3 km/hSüdosten1016.1 hPa0.0 mm0.0 mm/h
20.06.2024 - 06.15Uhr18.3 °C16.5 °C89 %23.0 W/m²0.0 km/hOst-SO0.0 km/hNorden1016.1 hPa0.0 mm0.0 mm/h
20.06.2024 - 06.20Uhr18.4 °C16.4 °C88 %28.0 W/m²1.5 km/hSüdosten4.0 km/hOsten1016.1 hPa0.0 mm0.0 mm/h
20.06.2024 - 06.25Uhr18.7 °C16.4 °C86 %33.0 W/m²1.3 km/hOst-SO4.0 km/hOst-SO1016.1 hPa0.0 mm0.0 mm/h
20.06.2024 - 06.30Uhr18.8 °C16.5 °C87 %33.0 W/m²0.0 km/hOst-SO0.0 km/hNorden1016.1 hPa0.0 mm0.0 mm/h
20.06.2024 - 06.35Uhr19.0 °C16.4 °C85 %35.0 W/m²1.8 km/hOst-SO8.3 km/hOsten1016.2 hPa0.0 mm0.0 mm/h
20.06.2024 - 06.40Uhr19.3 °C16.5 °C84 %39.0 W/m²2.6 km/hOst-SO8.3 km/hOst-SO1016.4 hPa0.0 mm0.0 mm/h
20.06.2024 - 06.45Uhr19.3 °C16.4 °C83 %40.0 W/m²4.9 km/hSüdosten12.2 km/hOst-SO1016.3 hPa0.0 mm0.0 mm/h
20.06.2024 - 06.50Uhr19.4 °C16.3 °C83 %40.0 W/m²2.5 km/hOsten8.3 km/hOsten1016.1 hPa0.0 mm0.0 mm/h
20.06.2024 - 06.55Uhr19.4 °C16.4 °C83 %37.0 W/m²4.1 km/hOsten8.3 km/hOsten1016.1 hPa0.0 mm0.0 mm/h
20.06.2024 - 07.00Uhr19.4 °C16.4 °C83 %54.0 W/m²1.5 km/hOsten4.0 km/hOsten1016.2 hPa0.0 mm0.0 mm/h
20.06.2024 - 07.05Uhr19.4 °C16.4 °C83 %58.0 W/m²0.0 km/hOsten0.0 km/hNorden1016.1 hPa0.0 mm0.0 mm/h
20.06.2024 - 07.10Uhr19.6 °C16.4 °C82 %58.0 W/m²2.7 km/hSüdosten8.3 km/hSüdosten1016.2 hPa0.0 mm0.0 mm/h
20.06.2024 - 07.15Uhr19.6 °C16.5 °C82 %58.0 W/m²1.0 km/hOsten4.0 km/hOsten1016.3 hPa0.0 mm0.0 mm/h
20.06.2024 - 07.20Uhr19.5 °C16.4 °C83 %44.0 W/m²0.7 km/hNordosten4.0 km/hNordosten1016.3 hPa0.0 mm0.0 mm/h
20.06.2024 - 07.25Uhr19.4 °C16.4 °C83 %39.0 W/m²1.2 km/hOst-NO8.3 km/hSüdosten1016.3 hPa0.0 mm0.0 mm/h
20.06.2024 - 07.30Uhr19.4 °C16.4 °C83 %69.0 W/m²2.0 km/hSüdosten8.3 km/hOst-SO1016.4 hPa0.0 mm0.0 mm/h
20.06.2024 - 07.35Uhr19.6 °C16.5 °C82 %84.0 W/m²2.6 km/hSüd-SO8.3 km/hSüdosten1016.4 hPa0.0 mm0.0 mm/h
20.06.2024 - 07.40Uhr19.6 °C16.9 °C84 %93.0 W/m²0.4 km/hOst-NO1.8 km/hNordosten1016.4 hPa0.0 mm0.0 mm/h
20.06.2024 - 07.45Uhr19.7 °C16.7 °C83 %102.0 W/m²0.3 km/hNord-NO1.8 km/hNord-NO1016.3 hPa0.0 mm0.0 mm/h
20.06.2024 - 07.50Uhr19.8 °C16.5 °C82 %102.0 W/m²1.7 km/hOsten8.3 km/hOsten1016.3 hPa0.0 mm0.0 mm/h
20.06.2024 - 07.55Uhr19.8 °C16.6 °C82 %105.0 W/m²0.3 km/hNordosten4.0 km/hSüdosten1016.4 hPa0.0 mm0.0 mm/h
20.06.2024 - 08.00Uhr19.8 °C16.6 °C82 %111.0 W/m²1.0 km/hSüdosten8.3 km/hSüdosten1016.5 hPa0.0 mm0.0 mm/h
20.06.2024 - 08.05Uhr19.9 °C16.6 °C81 %113.0 W/m²2.1 km/hOst-SO8.3 km/hOst-SO1016.6 hPa0.0 mm0.0 mm/h
20.06.2024 - 08.10Uhr19.9 °C16.6 °C82 %127.0 W/m²1.9 km/hOst-SO8.3 km/hOst-SO1016.5 hPa0.0 mm0.0 mm/h
20.06.2024 - 08.15Uhr20.0 °C16.6 °C81 %127.0 W/m²3.6 km/hSüdosten8.3 km/hOst-SO1016.4 hPa0.0 mm0.0 mm/h
20.06.2024 - 08.20Uhr19.9 °C16.7 °C82 %114.0 W/m²1.3 km/hSüdosten8.3 km/hSüdosten1016.6 hPa0.0 mm0.0 mm/h
20.06.2024 - 08.25Uhr19.9 °C16.6 °C82 %102.0 W/m²0.1 km/hOst-SO1.8 km/hOst-SO1016.7 hPa0.0 mm0.0 mm/h
20.06.2024 - 08.30Uhr20.0 °C16.7 °C81 %102.0 W/m²1.3 km/hOsten8.3 km/hSüd-SO1016.7 hPa0.0 mm0.0 mm/h
20.06.2024 - 08.35Uhr20.0 °C16.6 °C81 %90.0 W/m²3.1 km/hSüdosten8.3 km/hOsten1016.6 hPa0.0 mm0.0 mm/h
20.06.2024 - 08.40Uhr20.0 °C16.6 °C81 %84.0 W/m²2.7 km/hOst-SO8.3 km/hOst-SO1016.5 hPa0.0 mm0.0 mm/h
20.06.2024 - 08.45Uhr19.9 °C16.6 °C81 %81.0 W/m²3.8 km/hSüdosten8.3 km/hOst-SO1016.5 hPa0.0 mm0.0 mm/h
20.06.2024 - 08.50Uhr19.9 °C16.8 °C83 %84.0 W/m²2.4 km/hSüd-SO8.3 km/hOst-SO1016.6 hPa0.0 mm0.0 mm/h
20.06.2024 - 08.55Uhr19.9 °C16.6 °C82 %84.0 W/m²5.9 km/hSüdosten8.3 km/hOst-SO1016.5 hPa0.0 mm0.0 mm/h
20.06.2024 - 09.00Uhr19.8 °C16.7 °C82 %76.0 W/m²0.2 km/hSüdosten1.8 km/hSüdosten1016.6 hPa0.0 mm0.0 mm/h
20.06.2024 - 09.05Uhr19.8 °C16.6 °C82 %83.0 W/m²2.7 km/hSüdosten8.3 km/hOst-SO1016.6 hPa0.0 mm0.0 mm/h
20.06.2024 - 09.10Uhr19.8 °C16.6 °C82 %105.0 W/m²5.2 km/hOst-SO12.2 km/hSüdosten1016.5 hPa0.0 mm0.0 mm/h
20.06.2024 - 09.15Uhr19.9 °C16.7 °C82 %120.0 W/m²2.7 km/hOsten8.3 km/hOsten1016.4 hPa0.0 mm0.0 mm/h
20.06.2024 - 09.20Uhr20.0 °C16.8 °C82 %120.0 W/m²4.9 km/hSüdosten8.3 km/hOst-SO1016.5 hPa0.0 mm0.0 mm/h
20.06.2024 - 09.25Uhr20.0 °C16.6 °C81 %97.0 W/m²5.2 km/hOst-SO8.3 km/hOst-SO1016.5 hPa0.0 mm0.0 mm/h
20.06.2024 - 09.30Uhr19.9 °C16.5 °C81 %88.0 W/m²3.7 km/hOst-SO8.3 km/hOsten1016.3 hPa0.0 mm0.0 mm/h
20.06.2024 - 09.35Uhr19.9 °C16.7 °C82 %97.0 W/m²0.9 km/hSüdosten4.0 km/hSüdosten1016.4 hPa0.0 mm0.0 mm/h
20.06.2024 - 09.40Uhr19.9 °C16.8 °C82 %97.0 W/m²0.2 km/hSüdosten1.8 km/hNorden1016.4 hPa0.0 mm0.0 mm/h
20.06.2024 - 09.45Uhr20.0 °C17.0 °C83 %114.0 W/m²1.1 km/hSüdosten4.0 km/hOst-NO1016.2 hPa0.0 mm0.0 mm/h
20.06.2024 - 09.50Uhr20.1 °C16.8 °C81 %171.0 W/m²1.2 km/hOsten5.8 km/hOsten1016.4 hPa0.0 mm0.0 mm/h
20.06.2024 - 09.55Uhr20.2 °C16.9 °C81 %172.0 W/m²1.0 km/hOsten4.0 km/hSüdosten1016.6 hPa0.0 mm0.0 mm/h
20.06.2024 - 10.00Uhr20.4 °C17.5 °C83 %283.0 W/m²1.1 km/hSüdwesten4.0 km/hSüdwesten1016.8 hPa0.0 mm0.0 mm/h
20.06.2024 - 10.05Uhr20.7 °C17.4 °C82 %343.0 W/m²3.1 km/hOst-SO8.3 km/hOst-SO1016.7 hPa0.0 mm0.0 mm/h
20.06.2024 - 10.10Uhr20.7 °C17.0 °C80 %223.0 W/m²2.8 km/hOst-SO8.3 km/hOst-SO1016.6 hPa0.0 mm0.0 mm/h
20.06.2024 - 10.15Uhr20.7 °C17.1 °C80 %202.0 W/m²1.8 km/hSüden8.3 km/hSüden1016.6 hPa0.0 mm0.0 mm/h
20.06.2024 - 10.20Uhr20.8 °C17.2 °C80 %257.0 W/m²3.5 km/hSüdosten8.3 km/hSüdosten1016.6 hPa0.0 mm0.0 mm/h
20.06.2024 - 10.25Uhr20.8 °C17.2 °C80 %281.0 W/m²5.2 km/hSüdosten12.2 km/hOst-SO1016.6 hPa0.0 mm0.0 mm/h
20.06.2024 - 10.30Uhr21.0 °C17.2 °C79 %278.0 W/m²4.6 km/hOst-SO12.2 km/hOst-SO1016.5 hPa0.0 mm0.0 mm/h
20.06.2024 - 10.35Uhr20.9 °C17.1 °C79 %197.0 W/m²5.3 km/hSüdosten10.1 km/hOst-SO1016.6 hPa0.0 mm0.0 mm/h
20.06.2024 - 10.40Uhr20.8 °C17.1 °C79 %176.0 W/m²7.0 km/hSüdosten18.0 km/hOst-SO1016.6 hPa0.0 mm0.0 mm/h
20.06.2024 - 10.45Uhr20.7 °C16.9 °C79 %127.0 W/m²6.9 km/hSüdosten12.2 km/hOst-SO1016.3 hPa0.0 mm0.0 mm/h
20.06.2024 - 10.50Uhr20.6 °C16.9 °C80 %118.0 W/m²9.5 km/hOst-SO14.0 km/hOsten1016.1 hPa0.0 mm0.0 mm/h
20.06.2024 - 10.55Uhr20.5 °C17.1 °C81 %171.0 W/m²1.8 km/hOst-SO8.3 km/hOsten1016.0 hPa0.0 mm0.0 mm/h
20.06.2024 - 11.00Uhr20.6 °C17.3 °C81 %216.0 W/m²2.0 km/hOst-SO8.3 km/hOst-SO1016.0 hPa0.0 mm0.0 mm/h
20.06.2024 - 11.05Uhr20.8 °C17.3 °C80 %216.0 W/m²0.5 km/hSüd-SO1.8 km/hSüd-SO1015.9 hPa0.0 mm0.0 mm/h